Time;durP1;ratioP1;P1;durP2;ratioP2;P2;SDS_P1;SDS_P2;PMS_P1;PMS_P2;Temp;Humidity;BMP_temperature;BMP_pressure;BME280_temperature;BME280_humidity;BME280_pressure;Samples;Min_cycle;Max_cycle;Signal;HPM_P1;HPM_P2
2022/10/26 00:01:05;;;;;;;11.02;4.85;;;9.20;99.90;;;;;;5072868;28;20043;-84
2022/10/26 00:03:36;;;;;;;10.13;4.78;;;9.20;99.90;;;;;;5073430;28;20036;-84
2022/10/26 00:06:11;;;;;;;11.52;5.15;;;9.20;99.90;;;;;;5073122;28;20450;-84
2022/10/26 00:08:39;;;;;;;10.05;4.80;;;9.20;99.90;;;;;;5106730;28;20039;-84
2022/10/26 00:11:06;;;;;;;9.75;4.85;;;9.30;99.90;;;;;;5106992;28;20036;-84
2022/10/26 00:13:37;;;;;;;13.45;4.63;;;9.30;99.90;;;;;;5093110;28;20043;-84
2022/10/26 00:16:25;;;;;;;16.98;5.03;;;9.30;99.90;;;;;;5125951;28;20040;-84
2022/10/26 00:18:53;;;;;;;8.35;4.63;;;9.30;99.90;;;;;;5092745;28;20050;-84
2022/10/26 00:21:19;;;;;;;11.10;5.13;;;9.40;99.90;;;;;;5108778;28;20052;-84
2022/10/26 00:23:46;;;;;;;12.27;4.95;;;9.40;99.90;;;;;;5072699;28;20123;-85
2022/10/26 00:26:13;;;;;;;12.93;5.18;;;9.40;99.90;;;;;;5072804;28;20043;-84
2022/10/26 00:28:39;;;;;;;10.73;4.40;;;9.40;99.90;;;;;;5072736;28;20047;-85
2022/10/26 00:31:11;;;;;;;11.23;4.88;;;9.30;99.90;;;;;;5088782;28;20044;-84
2022/10/26 00:33:38;;;;;;;11.20;4.53;;;9.30;99.90;;;;;;5105979;28;20052;-84
2022/10/26 00:36:05;;;;;;;12.63;5.22;;;9.30;99.90;;;;;;5091834;28;20040;-84
2022/10/26 00:38:32;;;;;;;10.55;4.90;;;9.30;99.90;;;;;;5092473;28;20613;-84
2022/10/26 00:40:58;;;;;;;11.20;5.28;;;9.30;99.90;;;;;;5075924;28;20123;-85
2022/10/26 00:43:28;;;;;;;10.10;4.55;;;9.30;99.90;;;;;;5095455;28;20042;-84
2022/10/26 00:45:57;;;;;;;11.13;4.95;;;9.30;99.90;;;;;;5130426;28;20085;-84
2022/10/26 00:48:28;;;;;;;13.20;4.55;;;9.30;99.90;;;;;;5112913;28;20036;-84
2022/10/26 00:50:57;;;;;;;12.05;4.85;;;9.30;99.90;;;;;;5113719;28;20036;-84
2022/10/26 00:53:24;;;;;;;10.43;5.35;;;9.30;99.90;;;;;;5113141;28;20503;-84
2022/10/26 00:55:52;;;;;;;9.80;4.53;;;9.30;99.90;;;;;;5113417;28;20074;-84
2022/10/26 00:58:21;;;;;;;9.65;4.40;;;9.30;99.90;;;;;;5129668;28;20451;-84
2022/10/26 01:00:49;;;;;;;10.38;4.60;;;9.30;99.90;;;;;;5130278;28;20040;-84
2022/10/26 01:03:17;;;;;;;11.40;4.50;;;9.20;99.90;;;;;;5112469;28;20039;-84
2022/10/26 01:05:45;;;;;;;10.13;4.55;;;9.20;99.90;;;;;;5112976;28;20036;-85
2022/10/26 01:08:14;;;;;;;9.88;4.93;;;9.20;99.90;;;;;;5112258;28;20079;-84
2022/10/26 01:10:41;;;;;;;10.63;5.18;;;9.20;99.90;;;;;;5113099;28;20105;-84
2022/10/26 01:13:09;;;;;;;8.52;4.82;;;9.20;99.90;;;;;;5095569;28;20040;-84
2022/10/26 01:16:05;;;;;;;10.93;5.05;;;9.20;99.90;;;;;;5079608;28;20032;-84
2022/10/26 01:19:04;;;;;;;9.38;4.88;;;9.20;99.90;;;;;;5112753;28;20401;-84
2022/10/26 01:21:39;;;;;;;11.10;4.78;;;9.10;99.90;;;;;;5112126;28;20059;-84
2022/10/26 01:24:21;;;;;;;;;;;9.10;99.90;;;;;;5112617;28;20442;-84
2022/10/26 01:27:21;;;;;;;10.18;5.70;;;9.10;99.90;;;;;;5129379;28;19916;-85
2022/10/26 01:30:13;;;;;;;10.38;5.50;;;9.10;99.90;;;;;;5129462;28;20047;-84
2022/10/26 01:33:00;;;;;;;9.90;5.35;;;9.10;99.90;;;;;;5112448;28;20447;-84
2022/10/26 01:35:26;;;;;;;9.75;5.22;;;9.00;99.90;;;;;;5111503;28;20043;-84
2022/10/26 01:38:16;;;;;;;10.82;5.70;;;9.00;99.90;;;;;;5112178;28;20039;-84
2022/10/26 01:40:50;;;;;;;13.07;6.05;;;9.00;99.90;;;;;;5082965;28;20526;-84
2022/10/26 01:43:18;;;;;;;12.93;5.30;;;9.00;99.90;;;;;;5111986;28;20063;-84
2022/10/26 01:45:47;;;;;;;12.15;5.60;;;9.00;99.90;;;;;;5095271;28;20036;-84
2022/10/26 01:48:17;;;;;;;13.10;5.82;;;9.00;99.90;;;;;;5078935;28;20032;-84
2022/10/26 01:50:47;;;;;;;12.85;5.55;;;8.90;99.90;;;;;;5112017;28;20040;-85
2022/10/26 01:53:15;;;;;;;11.95;5.53;;;8.90;99.90;;;;;;5128612;28;20484;-84
2022/10/26 01:55:44;;;;;;;13.45;5.70;;;8.90;99.90;;;;;;5095819;28;20476;-84
2022/10/26 01:58:20;;;;;;;12.07;5.47;;;8.90;99.90;;;;;;5111628;28;20044;-83
2022/10/26 02:00:57;;;;;;;;;;;8.90;99.90;;;;;;5112538;28;20043;-84
2022/10/26 02:03:59;;;;;;;12.27;5.68;;;8.90;99.90;;;;;;5111676;28;19923;-85
2022/10/26 02:06:38;;;;;;;8.45;5.03;;;8.80;99.90;;;;;;5111682;28;20032;-84
2022/10/26 02:09:23;;;;;;;12.05;4.88;;;8.80;99.90;;;;;;5112029;28;20036;-85
2022/10/26 02:11:52;;;;;;;11.45;6.13;;;8.70;99.90;;;;;;5112119;28;20048;-84
2022/10/26 02:14:48;;;;;;;8.40;4.88;;;8.70;99.90;;;;;;5111348;28;20044;-84
2022/10/26 02:17:47;;;;;;;9.27;5.25;;;8.70;99.90;;;;;;5111508;28;20067;-84
2022/10/26 02:20:25;;;;;;;10.30;4.85;;;8.60;99.90;;;;;;5107807;28;20056;-83
2022/10/26 02:22:54;;;;;;;8.82;4.63;;;8.60;99.90;;;;;;5111555;28;20499;-84
2022/10/26 02:25:26;;;;;;;12.90;5.38;;;8.60;99.90;;;;;;5111132;28;20044;-84
2022/10/26 02:28:01;;;;;;;11.05;4.68;;;8.60;99.90;;;;;;5111555;28;20131;-84
2022/10/26 02:30:28;;;;;;;7.93;4.60;;;8.50;99.90;;;;;;5128097;28;20454;-84
2022/10/26 02:32:57;;;;;;;11.13;4.57;;;8.50;99.90;;;;;;5094778;28;20040;-84
2022/10/26 02:35:30;;;;;;;8.23;4.70;;;8.50;99.90;;;;;;5094454;28;20040;-84
2022/10/26 02:38:01;;;;;;;9.40;4.80;;;8.40;99.90;;;;;;5111038;28;20127;-84
2022/10/26 02:40:28;;;;;;;11.45;4.43;;;8.50;99.90;;;;;;5127814;28;20053;-84
2022/10/26 02:43:01;;;;;;;9.13;4.68;;;8.40;99.90;;;;;;5110997;28;20657;-84
2022/10/26 02:45:32;;;;;;;9.90;5.05;;;8.50;99.90;;;;;;5110691;28;20042;-84
2022/10/26 02:47:59;;;;;;;9.43;4.60;;;8.40;99.90;;;;;;5110751;28;20109;-86
2022/10/26 02:50:35;;;;;;;11.57;4.93;;;8.40;99.90;;;;;;5110890;28;20048;-84
2022/10/26 02:53:23;;;;;;;8.35;4.57;;;8.40;99.90;;;;;;5127916;28;20423;-84
2022/10/26 02:55:51;;;;;;;11.68;4.90;;;8.40;99.90;;;;;;5110953;28;20083;-84
2022/10/26 02:58:25;;;;;;;9.40;5.05;;;8.40;99.90;;;;;;5110369;28;20464;-83
2022/10/26 03:00:52;;;;;;;9.82;5.32;;;8.40;99.90;;;;;;5110836;28;20032;-84
2022/10/26 03:03:20;;;;;;;10.88;5.65;;;8.40;99.90;;;;;;5127248;28;20454;-83
2022/10/26 03:05:47;;;;;;;11.00;5.28;;;8.40;99.90;;;;;;5093083;28;20035;-84
2022/10/26 03:08:14;;;;;;;10.18;4.80;;;8.40;99.90;;;;;;5110634;28;20044;-84
2022/10/26 03:10:45;;;;;;;11.15;4.78;;;8.40;99.90;;;;;;5077265;28;20044;-84
2022/10/26 03:13:12;;;;;;;15.10;5.50;;;8.30;99.90;;;;;;5094233;28;20036;-84
2022/10/26 03:15:39;;;;;;;9.55;5.25;;;8.40;99.90;;;;;;5110466;28;20928;-84
2022/10/26 03:18:06;;;;;;;11.07;5.68;;;8.30;99.90;;;;;;5093845;28;20080;-84
2022/10/26 03:20:39;;;;;;;14.20;5.70;;;8.30;99.90;;;;;;5109847;28;20062;-84
2022/10/26 03:23:06;;;;;;;14.20;5.90;;;8.30;99.90;;;;;;5110049;28;20446;-84
2022/10/26 03:25:32;;;;;;;13.27;5.57;;;8.30;99.90;;;;;;5077003;28;20135;-84
2022/10/26 03:28:02;;;;;;;15.85;6.45;;;8.30;99.90;;;;;;5093590;28;20039;-84
2022/10/26 03:30:29;;;;;;;14.82;5.90;;;8.40;99.90;;;;;;5109713;28;20047;-84
2022/10/26 03:32:56;;;;;;;11.95;6.07;;;8.40;99.90;;;;;;5110088;28;20044;-84
2022/10/26 03:35:23;;;;;;;17.05;6.82;;;8.40;99.90;;;;;;5110221;28;20427;-84
2022/10/26 03:37:50;;;;;;;15.80;6.97;;;8.40;99.90;;;;;;5093572;28;20058;-84
2022/10/26 03:40:17;;;;;;;17.20;6.80;;;8.50;99.90;;;;;;5089777;28;20040;-84
2022/10/26 03:42:43;;;;;;;17.73;6.78;;;8.40;99.90;;;;;;5070356;28;20098;-84
2022/10/26 03:45:10;;;;;;;12.45;6.18;;;8.40;99.90;;;;;;5093026;28;20054;-84
2022/10/26 03:47:45;;;;;;;13.90;6.57;;;8.40;99.90;;;;;;5109143;28;20496;-84
2022/10/26 03:50:13;;;;;;;13.45;6.90;;;8.40;99.90;;;;;;5077113;28;20044;-84
2022/10/26 03:52:40;;;;;;;15.57;7.07;;;8.40;99.90;;;;;;5126022;28;20059;-84
2022/10/26 03:55:08;;;;;;;13.35;6.47;;;8.50;99.90;;;;;;5093560;28;20720;-84
2022/10/26 03:57:39;;;;;;;18.80;7.57;;;8.50;99.90;;;;;;5109333;28;20036;-84
2022/10/26 04:00:07;;;;;;;15.50;7.43;;;8.50;99.90;;;;;;5093301;28;20471;-83
2022/10/26 04:02:34;;;;;;;16.30;7.88;;;8.60;99.90;;;;;;5091877;28;20032;-84
2022/10/26 04:05:00;;;;;;;14.95;7.90;;;8.60;99.90;;;;;;5109427;28;20039;-84
2022/10/26 04:07:27;;;;;;;14.55;7.68;;;8.60;99.90;;;;;;5092442;28;20052;-84
2022/10/26 04:09:54;;;;;;;17.65;8.07;;;8.60;99.90;;;;;;5092925;28;20126;-84
2022/10/26 04:12:21;;;;;;;16.63;7.72;;;8.60;99.90;;;;;;5092631;28;20051;-85
2022/10/26 04:14:47;;;;;;;14.98;7.43;;;8.60;99.90;;;;;;5075683;28;20105;-84
2022/10/26 04:17:14;;;;;;;17.25;7.50;;;8.60;99.90;;;;;;5091430;28;20040;-84
2022/10/26 04:19:41;;;;;;;17.35;8.10;;;8.60;99.90;;;;;;5092173;28;20484;-84
2022/10/26 04:22:07;;;;;;;20.30;8.02;;;8.60;99.90;;;;;;5109061;28;20044;-85
2022/10/26 04:24:34;;;;;;;14.23;7.05;;;8.60;99.90;;;;;;5125659;28;20075;-84
2022/10/26 04:27:01;;;;;;;15.32;7.47;;;8.60;99.90;;;;;;5076130;28;20134;-84
2022/10/26 04:29:27;;;;;;;20.15;8.05;;;8.70;99.90;;;;;;5093036;28;20145;-84
2022/10/26 04:31:54;;;;;;;15.95;7.38;;;8.60;99.90;;;;;;5125670;28;20052;-84
2022/10/26 04:34:21;;;;;;;17.10;7.32;;;8.70;99.90;;;;;;5109726;28;20051;-84
2022/10/26 04:36:47;;;;;;;19.77;7.10;;;8.70;99.90;;;;;;5109092;28;20092;-84
2022/10/26 04:39:14;;;;;;;14.65;7.40;;;8.70;99.90;;;;;;5075960;28;20037;-84
2022/10/26 04:41:41;;;;;;;18.73;7.82;;;8.70;99.90;;;;;;5075924;28;20042;-84
2022/10/26 04:44:07;;;;;;;15.73;7.47;;;8.70;99.90;;;;;;5072381;28;20059;-84
2022/10/26 04:46:34;;;;;;;16.20;7.18;;;8.70;99.90;;;;;;5072342;28;20083;-84
2022/10/26 04:49:01;;;;;;;14.45;6.85;;;8.60;99.90;;;;;;5056088;28;20044;-84
2022/10/26 04:51:27;;;;;;;19.35;6.53;;;8.60;99.90;;;;;;5072311;28;20040;-84
2022/10/26 04:53:54;;;;;;;16.63;7.03;;;8.60;99.90;;;;;;5100320;28;20046;-84
2022/10/26 04:56:21;;;;;;;12.95;6.82;;;8.60;99.90;;;;;;5075943;28;20094;-84
2022/10/26 04:58:48;;;;;;;15.18;6.93;;;8.70;99.90;;;;;;5091670;28;20043;-84
2022/10/26 05:01:14;;;;;;;15.20;7.13;;;8.70;99.90;;;;;;5092441;28;20122;-84
2022/10/26 05:03:41;;;;;;;18.27;6.70;;;8.60;99.90;;;;;;5091724;28;20028;-84
2022/10/26 05:06:08;;;;;;;16.25;7.50;;;9.20;99.90;;;;;;5092239;28;20032;-84
2022/10/26 05:08:34;;;;;;;19.10;7.95;;;8.70;99.90;;;;;;5108565;28;20046;-83
2022/10/26 05:11:01;;;;;;;14.95;7.43;;;9.30;99.90;;;;;;5075662;28;20036;-84
2022/10/26 05:13:28;;;;;;;19.25;7.75;;;8.70;99.90;;;;;;5092116;28;20495;-84
2022/10/26 05:15:54;;;;;;;17.98;7.28;;;8.80;99.90;;;;;;5092181;28;20044;-84
2022/10/26 05:18:21;;;;;;;17.48;8.15;;;8.80;99.90;;;;;;5085473;28;20043;-84
2022/10/26 05:20:52;;;;;;;14.65;7.13;;;8.80;99.90;;;;;;5108584;28;20048;-84
2022/10/26 05:23:19;;;;;;;14.90;6.97;;;8.90;99.90;;;;;;5108961;28;20039;-84
2022/10/26 05:25:49;;;;;;;17.80;7.00;;;9.00;99.90;;;;;;5108469;28;20422;-84
2022/10/26 05:28:17;;;;;;;18.58;7.90;;;8.90;99.90;;;;;;5109997;28;20177;-84
2022/10/26 05:30:45;;;;;;;16.55;8.18;;;9.00;99.90;;;;;;5112171;28;20512;-84
2022/10/26 05:33:12;;;;;;;13.88;6.90;;;9.00;99.90;;;;;;5112415;28;20048;-84
2022/10/26 05:35:39;;;;;;;14.82;7.32;;;9.10;99.90;;;;;;5089684;28;20059;-83
2022/10/26 05:38:16;;;;;;;15.82;7.40;;;9.10;99.90;;;;;;5075745;28;20119;-84
2022/10/26 05:40:51;;;;;;;21.35;7.57;;;9.10;99.90;;;;;;5103782;28;20036;-84
2022/10/26 05:43:19;;;;;;;18.15;7.30;;;9.10;99.90;;;;;;5102956;28;20487;-83
2022/10/26 05:45:45;;;;;;;13.50;6.95;;;9.10;99.90;;;;;;5086981;28;20032;-84
2022/10/26 05:48:12;;;;;;;15.45;6.75;;;9.20;99.90;;;;;;5092053;28;20101;-84
2022/10/26 05:50:39;;;;;;;16.83;6.85;;;9.20;99.90;;;;;;5059654;28;20083;-83
2022/10/26 05:53:05;;;;;;;18.13;7.63;;;9.20;99.90;;;;;;5078963;28;20052;-84
2022/10/26 05:55:33;;;;;;;14.60;7.03;;;9.20;99.90;;;;;;5112361;28;20036;-84
2022/10/26 05:58:00;;;;;;;17.73;8.07;;;9.20;99.90;;;;;;5078986;28;20975;-84
2022/10/26 06:00:28;;;;;;;20.63;7.22;;;9.30;99.90;;;;;;5112201;28;20032;-84
2022/10/26 06:03:42;;;;;;;15.68;6.70;;;9.30;99.90;;;;;;5111800;28;20036;-84
2022/10/26 06:06:12;;;;;;;14.90;6.55;;;9.40;99.90;;;;;;5108499;28;20058;-83
2022/10/26 06:08:41;;;;;;;13.95;6.10;;;9.30;99.90;;;;;;5112065;28;20080;-84
2022/10/26 06:11:09;;;;;;;13.77;5.95;;;9.30;99.90;;;;;;5095641;28;20040;-84
2022/10/26 06:13:35;;;;;;;13.95;6.03;;;9.40;99.90;;;;;;5094750;28;20040;-85
2022/10/26 06:16:43;;;;;;;13.00;6.07;;;9.40;99.90;;;;;;5073086;28;20044;-84
2022/10/26 06:19:37;;;;;;;12.27;5.78;;;9.40;99.90;;;;;;5097246;28;20442;-84
2022/10/26 06:22:30;;;;;;;16.25;5.30;;;9.40;99.90;;;;;;5110614;28;20066;-84
2022/10/26 06:25:06;;;;;;;10.82;5.03;;;9.40;99.90;;;;;;5111077;28;20164;-84
2022/10/26 06:27:56;;;;;;;;;;;9.40;99.90;;;;;;5111692;28;20036;-85
2022/10/26 06:30:23;;;;;;;12.77;5.18;;;9.40;99.90;;;;;;5128790;28;19964;-84
2022/10/26 06:32:55;;;;;;;11.50;5.25;;;9.40;99.90;;;;;;5094632;28;20138;-84
2022/10/26 06:35:34;;;;;;;12.88;5.65;;;9.50;99.90;;;;;;5111456;28;20050;-85
2022/10/26 06:38:05;;;;;;;19.08;5.60;;;9.40;99.90;;;;;;5110750;28;20036;-84
2022/10/26 06:40:36;;;;;;;14.07;4.95;;;9.50;99.90;;;;;;5110526;28;20488;-83
2022/10/26 06:43:04;;;;;;;11.93;5.43;;;9.50;99.90;;;;;;5094481;28;20039;-84
2022/10/26 06:45:31;;;;;;;11.40;5.43;;;9.50;99.90;;;;;;5111596;28;20032;-84
2022/10/26 06:48:06;;;;;;;11.88;5.05;;;9.50;99.90;;;;;;5085095;28;20036;-83
2022/10/26 06:50:41;;;;;;;10.05;4.65;;;9.50;99.90;;;;;;5111368;28;20043;-84
2022/10/26 06:53:46;;;;;;;17.98;5.65;;;9.50;99.90;;;;;;5110854;28;20052;-84
2022/10/26 06:56:13;;;;;;;8.90;4.53;;;9.50;99.90;;;;;;5091220;28;20047;-84
2022/10/26 06:58:41;;;;;;;12.00;5.03;;;9.60;99.90;;;;;;5074893;28;20080;-84
2022/10/26 07:01:10;;;;;;;13.10;4.45;;;9.60;99.90;;;;;;5089086;28;20055;-84
2022/10/26 07:03:37;;;;;;;11.60;5.15;;;9.60;99.90;;;;;;5111391;28;20067;-84
2022/10/26 07:06:05;;;;;;;12.48;4.97;;;9.60;99.90;;;;;;5093889;28;20098;-84
2022/10/26 07:08:31;;;;;;;12.00;4.53;;;9.70;99.90;;;;;;5110175;28;20124;-84
2022/10/26 07:10:58;;;;;;;9.70;4.50;;;9.80;99.90;;;;;;5093356;28;20052;-84
2022/10/26 07:13:25;;;;;;;11.30;4.47;;;9.80;99.90;;;;;;5092014;28;20050;-84
2022/10/26 07:15:52;;;;;;;12.68;4.70;;;9.90;99.90;;;;;;5099404;28;20049;-84
2022/10/26 07:18:18;;;;;;;12.43;4.55;;;9.80;99.90;;;;;;5096733;28;20051;-85
2022/10/26 07:20:45;;;;;;;9.48;4.55;;;10.00;99.90;;;;;;5107145;28;20058;-84
2022/10/26 07:23:12;;;;;;;9.15;3.90;;;10.00;99.90;;;;;;5071508;28;20037;-85
2022/10/26 07:25:39;;;;;;;12.15;4.63;;;10.00;99.90;;;;;;5076348;28;20040;-84
2022/10/26 07:28:09;;;;;;;11.07;4.70;;;10.10;99.90;;;;;;5089393;28;20115;-84
2022/10/26 07:30:37;;;;;;;9.02;4.75;;;10.10;99.90;;;;;;5092675;28;20036;-84
2022/10/26 07:33:10;;;;;;;12.25;4.93;;;10.10;99.90;;;;;;5126609;28;20097;-84
2022/10/26 07:35:37;;;;;;;10.70;5.57;;;10.10;99.90;;;;;;5110117;28;20032;-84
2022/10/26 07:38:04;;;;;;;10.82;4.97;;;10.20;99.90;;;;;;5109880;28;20123;-84
2022/10/26 07:40:31;;;;;;;11.38;4.50;;;10.20;99.90;;;;;;5127010;28;20048;-84
2022/10/26 07:42:59;;;;;;;15.10;5.28;;;10.20;99.90;;;;;;5109873;28;20038;-84
2022/10/26 07:45:27;;;;;;;9.50;4.75;;;10.20;99.90;;;;;;5093632;28;20036;-85
2022/10/26 07:47:54;;;;;;;10.05;4.65;;;10.30;99.90;;;;;;5106832;28;20102;-86
2022/10/26 07:50:25;;;;;;;12.73;4.22;;;10.30;99.90;;;;;;5109702;28;20044;-85
2022/10/26 07:52:51;;;;;;;13.38;4.82;;;10.30;99.90;;;;;;5122697;28;20105;-85
2022/10/26 07:55:19;;;;;;;12.77;4.78;;;10.40;99.90;;;;;;5126488;28;20044;-86
2022/10/26 07:57:48;;;;;;;8.50;4.63;;;10.40;99.90;;;;;;5075939;28;20043;-86
2022/10/26 08:00:15;;;;;;;9.88;4.43;;;10.50;99.90;;;;;;5076307;28;20118;-85
2022/10/26 08:02:42;;;;;;;10.00;5.07;;;10.50;99.90;;;;;;5073669;28;20123;-84
2022/10/26 08:05:08;;;;;;;8.95;4.95;;;10.50;99.90;;;;;;5109181;28;20042;-86
2022/10/26 08:07:42;;;;;;;9.52;4.68;;;10.60;99.90;;;;;;5072591;28;20037;-84
2022/10/26 08:10:10;;;;;;;8.25;4.07;;;10.60;99.90;;;;;;5106175;28;20055;-87
2022/10/26 08:12:36;;;;;;;7.95;3.70;;;10.70;99.90;;;;;;5106667;28;20048;-86
2022/10/26 08:15:04;;;;;;;15.48;4.60;;;10.70;99.90;;;;;;5105045;28;20036;-85
2022/10/26 08:17:30;;;;;;;9.82;4.45;;;10.70;99.90;;;;;;5109999;28;20043;-86
2022/10/26 08:19:57;;;;;;;9.40;4.18;;;10.80;99.90;;;;;;5093035;28;20039;-84
2022/10/26 08:22:24;;;;;;;11.40;5.05;;;10.80;99.90;;;;;;5092802;28;20048;-85
2022/10/26 08:24:51;;;;;;;14.63;5.43;;;10.90;99.90;;;;;;5109772;28;20046;-85
2022/10/26 08:27:18;;;;;;;9.35;4.15;;;11.10;99.90;;;;;;5076151;28;20166;-86
2022/10/26 08:29:44;;;;;;;10.80;4.35;;;11.20;99.90;;;;;;5093367;28;20546;-86
2022/10/26 08:32:11;;;;;;;7.50;3.70;;;11.30;99.90;;;;;;5076011;28;20090;-85
2022/10/26 08:34:38;;;;;;;8.35;4.70;;;11.40;99.90;;;;;;5092538;28;20448;-87
2022/10/26 08:37:05;;;;;;;10.43;4.20;;;11.60;99.90;;;;;;5075653;28;20085;-85
2022/10/26 08:39:31;;;;;;;10.55;4.40;;;11.70;99.90;;;;;;5075676;28;20040;-85
2022/10/26 08:42:13;;;;;;;8.73;4.30;;;11.80;99.90;;;;;;5075935;28;20487;-85
2022/10/26 08:44:45;;;;;;;9.77;3.83;;;11.90;99.90;;;;;;5125561;28;20484;-85
2022/10/26 08:47:22;;;;;;;7.10;3.83;;;11.80;99.90;;;;;;5108077;28;20040;-85
2022/10/26 08:50:01;;;;;;;12.13;4.13;;;12.00;99.90;;;;;;5105765;28;20048;-85
2022/10/26 08:53:01;;;;;;;9.18;3.78;;;12.10;99.90;;;;;;5088511;28;20047;-86
2022/10/26 08:55:39;;;;;;;10.52;4.18;;;12.30;99.90;;;;;;5116823;28;20111;-84
2022/10/26 08:58:12;;;;;;;8.95;3.90;;;12.40;99.90;;;;;;5125498;28;20054;-85
2022/10/26 09:00:39;;;;;;;6.80;4.13;;;12.60;99.90;;;;;;5109095;28;20127;-86
2022/10/26 09:03:17;;;;;;;7.30;3.58;;;12.60;99.90;;;;;;5109615;28;20040;-85
2022/10/26 09:05:52;;;;;;;11.05;3.33;;;12.70;99.90;;;;;;5096420;28;20041;-85
2022/10/26 09:08:49;;;;;;;8.70;3.65;;;12.80;99.90;;;;;;5112662;28;20044;-85
2022/10/26 09:11:34;;;;;;;5.53;2.75;;;12.80;99.90;;;;;;5092825;28;20052;-85
2022/10/26 09:14:37;;;;;;;5.07;2.90;;;12.80;99.90;;;;;;5121275;28;20127;-84
2022/10/26 09:17:25;;;;;;;9.35;3.00;;;12.80;99.90;;;;;;5112755;28;20067;-85
2022/10/26 09:20:03;;;;;;;6.45;2.70;;;12.90;99.90;;;;;;5113250;28;20047;-86
2022/10/26 09:22:51;;;;;;;7.65;2.47;;;13.00;99.90;;;;;;5112720;28;20144;-86
2022/10/26 09:25:20;;;;;;;9.77;2.50;;;13.10;99.90;;;;;;5107814;28;20036;-85
2022/10/26 09:27:56;;;;;;;7.32;2.05;;;13.30;99.90;;;;;;5113116;28;20054;-86
2022/10/26 09:30:23;;;;;;;5.03;2.53;;;13.40;99.90;;;;;;5111581;28;20123;-85
2022/10/26 09:32:57;;;;;;;4.57;2.40;;;13.50;99.90;;;;;;5064511;28;20605;-85
2022/10/26 09:35:29;;;;;;;4.93;2.42;;;13.60;99.90;;;;;;5122918;28;20032;-86
2022/10/26 09:38:08;;;;;;;8.00;2.50;;;13.80;99.90;;;;;;5120384;28;20040;-86
2022/10/26 09:40:47;;;;;;;7.65;2.20;;;13.80;99.90;;;;;;5108243;28;20039;-85
2022/10/26 09:43:19;;;;;;;5.75;2.40;;;13.90;99.90;;;;;;5114345;28;20508;-85
2022/10/26 09:45:51;;;;;;;7.53;2.33;;;14.00;99.90;;;;;;5101664;28;20189;-86
2022/10/26 09:48:21;;;;;;;5.57;2.55;;;14.00;99.90;;;;;;5106320;28;20051;-85
2022/10/26 09:50:50;;;;;;;7.72;2.60;;;14.00;99.90;;;;;;5128736;28;20094;-85
2022/10/26 09:53:17;;;;;;;4.50;2.22;;;14.10;99.90;;;;;;5094208;28;20086;-85
2022/10/26 09:55:46;;;;;;;5.38;2.22;;;14.20;99.90;;;;;;5111492;28;20083;-85
2022/10/26 09:58:36;;;;;;;6.97;2.20;;;14.30;99.90;;;;;;5121542;28;20119;-85
2022/10/26 10:01:03;;;;;;;4.97;1.95;;;14.50;99.90;;;;;;5128824;28;20097;-85
2022/10/26 10:03:31;;;;;;;4.00;2.00;;;14.60;99.90;;;;;;5094310;28;20040;-85
2022/10/26 10:06:18;;;;;;;4.05;1.83;;;14.60;99.90;;;;;;5097213;28;20092;-86
2022/10/26 10:09:05;;;;;;;7.15;2.00;;;14.70;99.90;;;;;;5112497;28;20048;-86
2022/10/26 10:11:40;;;;;;;4.63;1.95;;;14.80;99.90;;;;;;5109667;28;20044;-87
2022/10/26 10:14:12;;;;;;;4.47;1.88;;;14.80;99.90;;;;;;5111609;28;20046;-86
2022/10/26 10:16:39;;;;;;;3.17;1.70;;;14.90;99.90;;;;;;5112161;28;20036;-86
2022/10/26 10:19:21;;;;;;;4.68;1.98;;;15.00;99.90;;;;;;5111538;28;20073;-85
2022/10/26 10:21:49;;;;;;;5.15;1.90;;;15.10;99.90;;;;;;5107591;28;20137;-86
2022/10/26 10:24:28;;;;;;;7.63;1.90;;;15.10;99.90;;;;;;5097770;28;20814;-86
2022/10/26 10:27:02;;;;;;;6.18;1.75;;;15.10;99.90;;;;;;5112784;28;20044;-86
2022/10/26 10:29:39;;;;;;;3.78;1.75;;;15.10;99.90;;;;;;5100214;28;20570;-86
2022/10/26 10:32:15;;;;;;;5.65;1.90;;;15.10;99.90;;;;;;5126546;28;20816;-86
2022/10/26 10:34:43;;;;;;;3.95;1.60;;;15.10;99.90;;;;;;5107702;28;20085;-87
2022/10/26 10:37:33;;;;;;;6.10;2.53;;;15.00;99.90;;;;;;5080518;28;20408;-86
2022/10/26 10:40:07;;;;;;;4.78;1.70;;;15.10;99.90;;;;;;5102986;28;20032;-86
2022/10/26 10:42:40;;;;;;;5.47;1.92;;;15.20;99.90;;;;;;5105212;28;20058;-86
2022/10/26 10:45:28;;;;;;;3.58;1.70;;;15.20;99.90;;;;;;5110316;28;20040;-86
2022/10/26 10:48:04;;;;;;;7.55;1.85;;;15.20;99.90;;;;;;5110633;28;20047;-86
2022/10/26 10:50:36;;;;;;;5.38;1.75;;;15.30;99.90;;;;;;5110959;28;20133;-86
2022/10/26 10:53:18;;;;;;;4.93;1.70;;;15.30;99.90;;;;;;5104836;28;20051;-85
2022/10/26 10:56:09;;;;;;;3.55;1.60;;;15.30;99.90;;;;;;5110265;28;20043;-86
2022/10/26 10:58:51;;;;;;;7.90;1.95;;;15.40;99.90;;;;;;5109802;28;20698;-86
2022/10/26 11:01:22;;;;;;;7.75;1.70;;;15.40;99.90;;;;;;5124563;28;20068;-85
2022/10/26 11:04:39;;;;;;;5.53;1.83;;;15.50;99.90;;;;;;5109678;28;20043;-85
2022/10/26 11:07:06;;;;;;;6.30;1.73;;;15.60;99.90;;;;;;5081270;28;20041;-85
2022/10/26 11:09:38;;;;;;;4.13;1.60;;;15.60;99.90;;;;;;5090108;28;20059;-86
2022/10/26 11:12:12;;;;;;;3.53;1.55;;;15.70;99.90;;;;;;5093797;28;20184;-85
2022/10/26 11:14:43;;;;;;;2.25;1.23;;;15.80;99.90;;;;;;5110280;28;20047;-86
2022/10/26 11:17:21;;;;;;;3.78;1.60;;;15.90;99.90;;;;;;5127060;28;20548;-86
2022/10/26 11:19:53;;;;;;;4.35;1.65;;;15.90;99.90;;;;;;5093182;28;20119;-86
2022/10/26 11:22:25;;;;;;;5.38;1.60;;;16.00;99.90;;;;;;5126474;28;20499;-86
2022/10/26 11:25:15;;;;;;;8.48;3.88;;;16.10;99.90;;;;;;5074618;28;20123;-86
2022/10/26 11:27:47;;;;;;;4.68;1.80;;;16.10;99.90;;;;;;5099855;28;20449;-86
2022/10/26 11:30:18;;;;;;;7.05;1.70;;;16.20;99.90;;;;;;5109233;28;20032;-87
2022/10/26 11:33:00;;;;;;;7.40;1.50;;;16.30;99.90;;;;;;5127224;28;20044;-86
2022/10/26 11:35:30;;;;;;;4.22;1.63;;;16.40;99.90;;;;;;5123679;28;20039;-86
2022/10/26 11:38:30;;;;;;;6.22;1.58;;;16.50;99.90;;;;;;5109309;28;20057;-86
2022/10/26 11:41:16;;;;;;;4.07;1.30;;;16.50;99.90;;;;;;5107076;28;20040;-86
2022/10/26 11:44:03;;;;;;;4.57;1.50;;;16.50;99.90;;;;;;5119167;28;20048;-85
2022/10/26 11:46:36;;;;;;;4.18;1.30;;;16.60;99.90;;;;;;5106622;28;20044;-86
2022/10/26 11:49:23;;;;;;;3.50;1.20;;;16.60;99.90;;;;;;5090507;28;20131;-86
2022/10/26 11:52:04;;;;;;;2.70;1.20;;;16.70;99.90;;;;;;5095433;28;20565;-86
2022/10/26 11:54:39;;;;;;;3.75;1.45;;;16.70;99.90;;;;;;5092583;28;20055;-86
2022/10/26 11:57:06;;;;;;;2.85;1.48;;;17.00;99.90;;;;;;5110401;28;20124;-86
2022/10/26 11:59:40;;;;;;;4.82;1.60;;;16.90;99.90;;;;;;5068353;28;20102;-86
2022/10/26 12:02:18;;;;;;;3.33;1.58;;;16.90;99.90;;;;;;5105906;28;20060;-86
2022/10/26 12:05:02;;;;;;;4.03;1.40;;;16.90;99.90;;;;;;5095979;28;20036;-88
2022/10/26 12:07:31;;;;;;;6.70;1.90;;;16.90;99.90;;;;;;5106619;28;20044;-88
2022/10/26 12:10:01;;;;;;;4.38;1.50;;;16.90;99.90;;;;;;5106964;28;20078;-88
2022/10/26 12:12:37;;;;;;;3.50;1.58;;;16.90;99.90;;;;;;5095784;28;20036;-88
2022/10/26 12:15:17;;;;;;;3.90;1.55;;;16.90;99.90;;;;;;5109966;28;20036;-88
2022/10/26 12:18:06;;;;;;;2.50;1.15;;;16.90;99.90;;;;;;5110182;28;20052;-88
2022/10/26 12:20:50;;;;;;;4.13;1.55;;;17.00;99.90;;;;;;5109982;28;20052;-88
2022/10/26 12:23:17;;;;;;;4.45;1.70;;;17.00;99.90;;;;;;5109828;28;20051;-88
2022/10/26 12:25:44;;;;;;;5.45;1.70;;;17.00;99.90;;;;;;5110199;28;20036;-88
2022/10/26 12:28:36;;;;;;;4.63;1.85;;;17.00;99.90;;;;;;5110441;28;20040;-87
2022/10/26 12:31:35;;;;;;;3.88;1.52;;;17.10;99.90;;;;;;5110013;28;20040;-88
2022/10/26 12:34:11;;;;;;;5.50;2.13;;;17.10;99.90;;;;;;5135990;28;20867;-88
2022/10/26 12:36:53;;;;;;;7.10;1.88;;;17.00;99.90;;;;;;5109810;28;20044;-86
2022/10/26 12:39:26;;;;;;;4.07;1.92;;;17.00;99.90;;;;;;5108869;28;20040;-86
2022/10/26 12:42:05;;;;;;;3.58;1.60;;;17.10;99.90;;;;;;5109298;28;20040;-86
2022/10/26 12:44:56;;;;;;;6.60;2.08;;;17.10;99.90;;;;;;5125686;28;20063;-86
2022/10/26 12:47:29;;;;;;;5.78;1.63;;;17.10;99.90;;;;;;5117166;28;20051;-85
2022/10/26 12:50:05;;;;;;;5.00;1.65;;;17.10;99.90;;;;;;5109290;28;20504;-86
2022/10/26 12:52:50;;;;;;;3.15;1.60;;;17.00;99.90;;;;;;5108594;28;20484;-86
2022/10/26 12:55:32;;;;;;;4.82;1.40;;;17.10;99.90;;;;;;5109542;28;20089;-86
2022/10/26 12:58:17;;;;;;;6.78;1.60;;;17.10;99.90;;;;;;5108968;28;20051;-86
2022/10/26 13:01:09;;;;;;;2.75;1.45;;;17.10;99.90;;;;;;5108902;28;20055;-86
2022/10/26 13:03:55;;;;;;;3.95;1.40;;;17.00;99.90;;;;;;5106870;28;20052;-86
2022/10/26 13:06:37;;;;;;;3.67;1.50;;;17.10;99.90;;;;;;5108988;28;20450;-87
2022/10/26 13:09:15;;;;;;;5.07;1.80;;;17.20;99.90;;;;;;5109342;28;20075;-88
2022/10/26 13:12:02;;;;;;;5.55;1.80;;;17.20;99.90;;;;;;5098494;28;20119;-86
2022/10/26 13:14:34;;;;;;;6.78;2.00;;;17.30;99.90;;;;;;5091467;28;20074;-87
2022/10/26 13:17:04;;;;;;;5.95;1.60;;;17.30;99.90;;;;;;5109534;28;20119;-87
2022/10/26 13:19:42;;;;;;;4.18;1.55;;;17.40;99.90;;;;;;5108738;28;20047;-87